sensor_id;sensor_type;location;lat;lon;timestamp;P1;durP1;ratioP1;P2;durP2;ratioP2
16979;SDS011;42288;52.182;21.156;2023-02-28T00:00:48;46.70;;;21.30;;
16979;SDS011;42288;52.182;21.156;2023-02-28T00:03:13;48.20;;;22.27;;
16979;SDS011;42288;52.182;21.156;2023-02-28T00:05:39;47.80;;;21.47;;
16979;SDS011;42288;52.182;21.156;2023-02-28T00:08:06;46.43;;;22.03;;
16979;SDS011;42288;52.182;21.156;2023-02-28T00:10:32;47.37;;;20.40;;
16979;SDS011;42288;52.182;21.156;2023-02-28T00:13:02;45.23;;;21.63;;
16979;SDS011;42288;52.182;21.156;2023-02-28T00:15:30;44.33;;;21.23;;
16979;SDS011;42288;52.182;21.156;2023-02-28T00:17:56;45.97;;;20.97;;
16979;SDS011;42288;52.182;21.156;2023-02-28T00:20:21;42.70;;;20.13;;
16979;SDS011;42288;52.182;21.156;2023-02-28T00:22:49;44.93;;;20.67;;
16979;SDS011;42288;52.182;21.156;2023-02-28T00:25:17;49.17;;;22.00;;
16979;SDS011;42288;52.182;21.156;2023-02-28T00:27:44;45.70;;;20.93;;
16979;SDS011;42288;52.182;21.156;2023-02-28T00:30:11;48.13;;;20.83;;
16979;SDS011;42288;52.182;21.156;2023-02-28T00:32:39;46.17;;;21.10;;
16979;SDS011;42288;52.182;21.156;2023-02-28T00:35:05;44.43;;;20.70;;
16979;SDS011;42288;52.182;21.156;2023-02-28T00:37:31;45.23;;;20.33;;
16979;SDS011;42288;52.182;21.156;2023-02-28T00:39:57;43.30;;;20.50;;
16979;SDS011;42288;52.182;21.156;2023-02-28T00:42:23;102.10;;;35.17;;
16979;SDS011;42288;52.182;21.156;2023-02-28T00:44:49;90.57;;;31.10;;
16979;SDS011;42288;52.182;21.156;2023-02-28T00:47:14;57.07;;;25.20;;
16979;SDS011;42288;52.182;21.156;2023-02-28T00:49:40;50.77;;;21.23;;
16979;SDS011;42288;52.182;21.156;2023-02-28T00:52:06;54.40;;;22.43;;
16979;SDS011;42288;52.182;21.156;2023-02-28T00:54:31;46.43;;;20.13;;
16979;SDS011;42288;52.182;21.156;2023-02-28T00:56:57;45.47;;;20.67;;
16979;SDS011;42288;52.182;21.156;2023-02-28T00:59:23;45.83;;;20.37;;
16979;SDS011;42288;52.182;21.156;2023-02-28T01:01:48;40.10;;;19.50;;
16979;SDS011;42288;52.182;21.156;2023-02-28T01:04:14;47.23;;;20.53;;
16979;SDS011;42288;52.182;21.156;2023-02-28T01:06:40;59.93;;;24.53;;
16979;SDS011;42288;52.182;21.156;2023-02-28T01:09:06;42.47;;;19.20;;
16979;SDS011;42288;52.182;21.156;2023-02-28T01:11:33;50.20;;;20.27;;
16979;SDS011;42288;52.182;21.156;2023-02-28T01:13:59;46.10;;;20.33;;
16979;SDS011;42288;52.182;21.156;2023-02-28T01:16:26;42.00;;;18.93;;
16979;SDS011;42288;52.182;21.156;2023-02-28T01:18:52;48.83;;;21.63;;
16979;SDS011;42288;52.182;21.156;2023-02-28T01:21:19;47.97;;;20.67;;
16979;SDS011;42288;52.182;21.156;2023-02-28T01:23:46;52.03;;;22.03;;
16979;SDS011;42288;52.182;21.156;2023-02-28T01:26:19;47.10;;;21.63;;
16979;SDS011;42288;52.182;21.156;2023-02-28T01:28:47;56.77;;;23.80;;
16979;SDS011;42288;52.182;21.156;2023-02-28T01:31:13;58.70;;;26.23;;
16979;SDS011;42288;52.182;21.156;2023-02-28T01:33:39;54.23;;;23.63;;
16979;SDS011;42288;52.182;21.156;2023-02-28T01:38:41;45.80;;;22.10;;
16979;SDS011;42288;52.182;21.156;2023-02-28T01:41:07;47.07;;;20.87;;
16979;SDS011;42288;52.182;21.156;2023-02-28T01:46:08;43.87;;;20.43;;
16979;SDS011;42288;52.182;21.156;2023-02-28T01:48:37;44.57;;;20.03;;
16979;SDS011;42288;52.182;21.156;2023-02-28T01:51:07;49.53;;;21.23;;
16979;SDS011;42288;52.182;21.156;2023-02-28T01:53:39;46.90;;;20.97;;
16979;SDS011;42288;52.182;21.156;2023-02-28T01:56:11;48.33;;;21.00;;
16979;SDS011;42288;52.182;21.156;2023-02-28T01:58:45;55.47;;;22.77;;
16979;SDS011;42288;52.182;21.156;2023-02-28T02:01:18;51.33;;;21.60;;
16979;SDS011;42288;52.182;21.156;2023-02-28T02:03:51;49.73;;;22.23;;
16979;SDS011;42288;52.182;21.156;2023-02-28T02:06:21;52.87;;;22.00;;
16979;SDS011;42288;52.182;21.156;2023-02-28T02:08:48;56.77;;;21.60;;
16979;SDS011;42288;52.182;21.156;2023-02-28T02:11:14;52.17;;;22.13;;
16979;SDS011;42288;52.182;21.156;2023-02-28T02:13:51;51.80;;;22.00;;
16979;SDS011;42288;52.182;21.156;2023-02-28T02:16:41;53.70;;;21.97;;
16979;SDS011;42288;52.182;21.156;2023-02-28T02:19:24;47.77;;;20.37;;
16979;SDS011;42288;52.182;21.156;2023-02-28T02:25:10;49.90;;;22.23;;
16979;SDS011;42288;52.182;21.156;2023-02-28T02:36:23;49.13;;;20.30;;
16979;SDS011;42288;52.182;21.156;2023-02-28T02:39:06;48.60;;;21.10;;
16979;SDS011;42288;52.182;21.156;2023-02-28T02:41:45;48.20;;;19.97;;
16979;SDS011;42288;52.182;21.156;2023-02-28T02:46:57;40.00;;;18.50;;
16979;SDS011;42288;52.182;21.156;2023-02-28T02:49:36;42.20;;;18.53;;
16979;SDS011;42288;52.182;21.156;2023-02-28T02:52:04;44.67;;;18.93;;
16979;SDS011;42288;52.182;21.156;2023-02-28T02:54:34;46.73;;;18.50;;
16979;SDS011;42288;52.182;21.156;2023-02-28T02:57:07;40.83;;;18.53;;
16979;SDS011;42288;52.182;21.156;2023-02-28T02:59:37;46.33;;;18.90;;
16979;SDS011;42288;52.182;21.156;2023-02-28T03:02:06;53.17;;;19.30;;
16979;SDS011;42288;52.182;21.156;2023-02-28T03:04:35;46.63;;;18.70;;
16979;SDS011;42288;52.182;21.156;2023-02-28T03:07:07;48.13;;;19.30;;
16979;SDS011;42288;52.182;21.156;2023-02-28T03:09:33;46.27;;;18.10;;
16979;SDS011;42288;52.182;21.156;2023-02-28T03:12:00;47.57;;;18.50;;
16979;SDS011;42288;52.182;21.156;2023-02-28T03:25:39;50.37;;;19.13;;
16979;SDS011;42288;52.182;21.156;2023-02-28T03:28:09;39.83;;;18.20;;
16979;SDS011;42288;52.182;21.156;2023-02-28T03:30:58;45.57;;;19.37;;
16979;SDS011;42288;52.182;21.156;2023-02-28T03:33:35;46.37;;;18.67;;
16979;SDS011;42288;52.182;21.156;2023-02-28T03:36:10;43.00;;;18.07;;
16979;SDS011;42288;52.182;21.156;2023-02-28T03:41:15;46.70;;;19.23;;
16979;SDS011;42288;52.182;21.156;2023-02-28T03:43:46;43.87;;;19.57;;
16979;SDS011;42288;52.182;21.156;2023-02-28T03:46:17;48.90;;;19.90;;
16979;SDS011;42288;52.182;21.156;2023-02-28T03:48:49;44.60;;;18.00;;
16979;SDS011;42288;52.182;21.156;2023-02-28T03:51:21;44.87;;;18.70;;
16979;SDS011;42288;52.182;21.156;2023-02-28T03:54:06;43.80;;;18.10;;
16979;SDS011;42288;52.182;21.156;2023-02-28T03:56:37;44.10;;;18.43;;
16979;SDS011;42288;52.182;21.156;2023-02-28T03:59:20;43.80;;;18.50;;
16979;SDS011;42288;52.182;21.156;2023-02-28T04:01:51;47.07;;;19.87;;
16979;SDS011;42288;52.182;21.156;2023-02-28T04:04:17;46.77;;;18.07;;
16979;SDS011;42288;52.182;21.156;2023-02-28T04:06:43;45.17;;;18.87;;
16979;SDS011;42288;52.182;21.156;2023-02-28T04:09:10;41.50;;;18.80;;
16979;SDS011;42288;52.182;21.156;2023-02-28T04:11:51;46.43;;;19.67;;
16979;SDS011;42288;52.182;21.156;2023-02-28T04:14:18;44.03;;;17.63;;
16979;SDS011;42288;52.182;21.156;2023-02-28T04:16:44;53.37;;;21.20;;
16979;SDS011;42288;52.182;21.156;2023-02-28T04:19:10;50.23;;;20.33;;
16979;SDS011;42288;52.182;21.156;2023-02-28T04:24:07;45.97;;;18.40;;
16979;SDS011;42288;52.182;21.156;2023-02-28T04:26:38;44.43;;;19.07;;
16979;SDS011;42288;52.182;21.156;2023-02-28T04:29:08;36.83;;;17.37;;
16979;SDS011;42288;52.182;21.156;2023-02-28T04:31:34;44.97;;;18.10;;
16979;SDS011;42288;52.182;21.156;2023-02-28T04:34:00;46.53;;;18.23;;
16979;SDS011;42288;52.182;21.156;2023-02-28T04:36:26;44.33;;;18.43;;
16979;SDS011;42288;52.182;21.156;2023-02-28T04:38:51;43.47;;;18.83;;
16979;SDS011;42288;52.182;21.156;2023-02-28T04:41:18;42.13;;;19.40;;
16979;SDS011;42288;52.182;21.156;2023-02-28T04:43:44;47.70;;;19.30;;
16979;SDS011;42288;52.182;21.156;2023-02-28T04:46:09;44.27;;;19.40;;
16979;SDS011;42288;52.182;21.156;2023-02-28T04:48:36;43.57;;;18.03;;
16979;SDS011;42288;52.182;21.156;2023-02-28T04:51:04;41.47;;;17.50;;
16979;SDS011;42288;52.182;21.156;2023-02-28T04:53:35;42.50;;;18.77;;
16979;SDS011;42288;52.182;21.156;2023-02-28T04:56:02;50.20;;;18.97;;
16979;SDS011;42288;52.182;21.156;2023-02-28T04:58:28;40.57;;;17.23;;
16979;SDS011;42288;52.182;21.156;2023-02-28T05:00:57;45.77;;;19.00;;
16979;SDS011;42288;52.182;21.156;2023-02-28T05:03:38;40.57;;;17.43;;
16979;SDS011;42288;52.182;21.156;2023-02-28T05:06:05;39.70;;;17.03;;
16979;SDS011;42288;52.182;21.156;2023-02-28T05:08:32;38.40;;;17.37;;
16979;SDS011;42288;52.182;21.156;2023-02-28T05:10:58;46.63;;;18.63;;
16979;SDS011;42288;52.182;21.156;2023-02-28T05:13:25;41.27;;;16.57;;
16979;SDS011;42288;52.182;21.156;2023-02-28T05:15:51;37.13;;;17.40;;
16979;SDS011;42288;52.182;21.156;2023-02-28T05:18:17;42.07;;;17.40;;
16979;SDS011;42288;52.182;21.156;2023-02-28T05:20:43;39.43;;;16.20;;
16979;SDS011;42288;52.182;21.156;2023-02-28T05:23:10;41.43;;;17.77;;
16979;SDS011;42288;52.182;21.156;2023-02-28T05:25:37;37.33;;;17.03;;
16979;SDS011;42288;52.182;21.156;2023-02-28T05:28:04;40.63;;;16.60;;
16979;SDS011;42288;52.182;21.156;2023-02-28T05:30:29;40.70;;;16.03;;
16979;SDS011;42288;52.182;21.156;2023-02-28T05:32:56;38.27;;;15.70;;
16979;SDS011;42288;52.182;21.156;2023-02-28T05:35:22;38.93;;;16.90;;
16979;SDS011;42288;52.182;21.156;2023-02-28T05:37:48;41.90;;;15.83;;
16979;SDS011;42288;52.182;21.156;2023-02-28T05:40:14;41.73;;;17.30;;
16979;SDS011;42288;52.182;21.156;2023-02-28T05:42:40;38.37;;;16.67;;
16979;SDS011;42288;52.182;21.156;2023-02-28T05:45:06;40.97;;;17.43;;
16979;SDS011;42288;52.182;21.156;2023-02-28T05:47:32;40.13;;;17.30;;
16979;SDS011;42288;52.182;21.156;2023-02-28T05:49:58;38.00;;;15.97;;
16979;SDS011;42288;52.182;21.156;2023-02-28T05:52:24;40.27;;;16.83;;
16979;SDS011;42288;52.182;21.156;2023-02-28T05:54:50;33.63;;;15.50;;
16979;SDS011;42288;52.182;21.156;2023-02-28T05:57:15;33.23;;;14.27;;
16979;SDS011;42288;52.182;21.156;2023-02-28T05:59:41;42.27;;;16.17;;
16979;SDS011;42288;52.182;21.156;2023-02-28T06:02:16;35.37;;;16.40;;
16979;SDS011;42288;52.182;21.156;2023-02-28T06:04:43;36.20;;;16.30;;
16979;SDS011;42288;52.182;21.156;2023-02-28T06:07:09;36.90;;;16.07;;
16979;SDS011;42288;52.182;21.156;2023-02-28T06:09:35;41.60;;;16.33;;
16979;SDS011;42288;52.182;21.156;2023-02-28T06:12:01;41.57;;;15.97;;
16979;SDS011;42288;52.182;21.156;2023-02-28T06:14:30;60.10;;;17.60;;
16979;SDS011;42288;52.182;21.156;2023-02-28T06:16:57;44.70;;;18.13;;
16979;SDS011;42288;52.182;21.156;2023-02-28T06:19:24;45.67;;;18.43;;
16979;SDS011;42288;52.182;21.156;2023-02-28T06:21:54;41.97;;;19.50;;
16979;SDS011;42288;52.182;21.156;2023-02-28T06:24:20;61.20;;;22.73;;
16979;SDS011;42288;52.182;21.156;2023-02-28T06:26:46;57.83;;;23.60;;
16979;SDS011;42288;52.182;21.156;2023-02-28T06:29:13;65.17;;;25.63;;
16979;SDS011;42288;52.182;21.156;2023-02-28T06:31:43;57.60;;;24.30;;
16979;SDS011;42288;52.182;21.156;2023-02-28T06:34:09;57.93;;;22.80;;
16979;SDS011;42288;52.182;21.156;2023-02-28T06:36:38;52.23;;;23.17;;
16979;SDS011;42288;52.182;21.156;2023-02-28T06:39:06;54.93;;;23.07;;
16979;SDS011;42288;52.182;21.156;2023-02-28T06:41:33;55.23;;;23.50;;
16979;SDS011;42288;52.182;21.156;2023-02-28T06:44:02;50.90;;;23.03;;
16979;SDS011;42288;52.182;21.156;2023-02-28T06:46:39;56.57;;;25.10;;
16979;SDS011;42288;52.182;21.156;2023-02-28T06:49:06;51.97;;;22.30;;
16979;SDS011;42288;52.182;21.156;2023-02-28T06:51:33;51.70;;;22.37;;
16979;SDS011;42288;52.182;21.156;2023-02-28T06:54:00;52.90;;;22.30;;
16979;SDS011;42288;52.182;21.156;2023-02-28T06:56:26;48.70;;;20.60;;
16979;SDS011;42288;52.182;21.156;2023-02-28T06:58:51;51.70;;;23.07;;
16979;SDS011;42288;52.182;21.156;2023-02-28T07:01:21;57.63;;;26.17;;
16979;SDS011;42288;52.182;21.156;2023-02-28T07:03:50;56.43;;;25.00;;
16979;SDS011;42288;52.182;21.156;2023-02-28T07:06:16;51.53;;;22.23;;
16979;SDS011;42288;52.182;21.156;2023-02-28T07:08:43;50.40;;;21.43;;
16979;SDS011;42288;52.182;21.156;2023-02-28T07:11:09;44.77;;;18.83;;
16979;SDS011;42288;52.182;21.156;2023-02-28T07:13:35;40.77;;;17.90;;
16979;SDS011;42288;52.182;21.156;2023-02-28T07:16:02;38.67;;;17.40;;
16979;SDS011;42288;52.182;21.156;2023-02-28T07:18:30;36.77;;;15.87;;
16979;SDS011;42288;52.182;21.156;2023-02-28T07:20:55;39.83;;;14.53;;
16979;SDS011;42288;52.182;21.156;2023-02-28T07:23:21;36.73;;;14.27;;
16979;SDS011;42288;52.182;21.156;2023-02-28T07:25:47;30.47;;;14.57;;
16979;SDS011;42288;52.182;21.156;2023-02-28T07:28:14;25.30;;;12.87;;
16979;SDS011;42288;52.182;21.156;2023-02-28T07:30:40;25.57;;;11.20;;
16979;SDS011;42288;52.182;21.156;2023-02-28T07:33:06;22.63;;;10.50;;
16979;SDS011;42288;52.182;21.156;2023-02-28T07:35:32;29.33;;;13.70;;
16979;SDS011;42288;52.182;21.156;2023-02-28T07:37:58;23.57;;;13.13;;
16979;SDS011;42288;52.182;21.156;2023-02-28T07:40:23;24.77;;;12.37;;
16979;SDS011;42288;52.182;21.156;2023-02-28T07:42:49;20.23;;;10.70;;
16979;SDS011;42288;52.182;21.156;2023-02-28T07:45:15;19.70;;;9.17;;
16979;SDS011;42288;52.182;21.156;2023-02-28T07:47:42;19.00;;;8.17;;
16979;SDS011;42288;52.182;21.156;2023-02-28T07:50:09;16.50;;;8.57;;
16979;SDS011;42288;52.182;21.156;2023-02-28T07:52:37;18.73;;;8.90;;
16979;SDS011;42288;52.182;21.156;2023-02-28T07:55:03;22.23;;;9.67;;
16979;SDS011;42288;52.182;21.156;2023-02-28T07:57:30;14.80;;;7.53;;
16979;SDS011;42288;52.182;21.156;2023-02-28T07:59:56;13.20;;;7.20;;
16979;SDS011;42288;52.182;21.156;2023-02-28T08:02:22;14.10;;;7.13;;
16979;SDS011;42288;52.182;21.156;2023-02-28T08:04:48;15.63;;;7.77;;
16979;SDS011;42288;52.182;21.156;2023-02-28T08:07:14;16.80;;;8.13;;
16979;SDS011;42288;52.182;21.156;2023-02-28T08:09:40;12.63;;;6.53;;
16979;SDS011;42288;52.182;21.156;2023-02-28T08:12:06;11.57;;;6.40;;
16979;SDS011;42288;52.182;21.156;2023-02-28T08:14:32;10.93;;;5.40;;
16979;SDS011;42288;52.182;21.156;2023-02-28T08:16:58;12.53;;;5.83;;
16979;SDS011;42288;52.182;21.156;2023-02-28T08:19:23;16.77;;;7.17;;
16979;SDS011;42288;52.182;21.156;2023-02-28T08:21:49;14.40;;;6.97;;
16979;SDS011;42288;52.182;21.156;2023-02-28T08:24:15;12.30;;;6.20;;
16979;SDS011;42288;52.182;21.156;2023-02-28T08:26:40;13.50;;;7.60;;
16979;SDS011;42288;52.182;21.156;2023-02-28T08:29:06;13.03;;;6.80;;
16979;SDS011;42288;52.182;21.156;2023-02-28T08:31:31;12.27;;;6.77;;
16979;SDS011;42288;52.182;21.156;2023-02-28T08:33:57;15.47;;;7.87;;
16979;SDS011;42288;52.182;21.156;2023-02-28T08:36:24;16.57;;;9.13;;
16979;SDS011;42288;52.182;21.156;2023-02-28T08:38:51;17.83;;;8.27;;
16979;SDS011;42288;52.182;21.156;2023-02-28T08:41:16;17.13;;;8.57;;
16979;SDS011;42288;52.182;21.156;2023-02-28T08:43:42;17.10;;;8.57;;
16979;SDS011;42288;52.182;21.156;2023-02-28T08:46:10;16.63;;;8.70;;
16979;SDS011;42288;52.182;21.156;2023-02-28T08:48:38;16.23;;;9.90;;
16979;SDS011;42288;52.182;21.156;2023-02-28T08:51:06;16.97;;;8.73;;
16979;SDS011;42288;52.182;21.156;2023-02-28T08:53:34;16.27;;;8.77;;
16979;SDS011;42288;52.182;21.156;2023-02-28T08:56:11;16.43;;;8.47;;
16979;SDS011;42288;52.182;21.156;2023-02-28T08:58:37;16.53;;;8.27;;
16979;SDS011;42288;52.182;21.156;2023-02-28T09:01:10;20.60;;;8.87;;
16979;SDS011;42288;52.182;21.156;2023-02-28T09:03:40;16.40;;;8.23;;
16979;SDS011;42288;52.182;21.156;2023-02-28T09:06:07;19.87;;;8.87;;
16979;SDS011;42288;52.182;21.156;2023-02-28T09:08:34;16.63;;;8.37;;
16979;SDS011;42288;52.182;21.156;2023-02-28T09:10:59;17.53;;;9.23;;
16979;SDS011;42288;52.182;21.156;2023-02-28T09:13:26;15.83;;;9.00;;
16979;SDS011;42288;52.182;21.156;2023-02-28T09:15:53;14.93;;;8.33;;
16979;SDS011;42288;52.182;21.156;2023-02-28T09:18:19;17.30;;;8.63;;
16979;SDS011;42288;52.182;21.156;2023-02-28T09:20:45;18.63;;;8.83;;
16979;SDS011;42288;52.182;21.156;2023-02-28T09:23:12;14.67;;;8.10;;
16979;SDS011;42288;52.182;21.156;2023-02-28T09:25:38;19.40;;;9.33;;
16979;SDS011;42288;52.182;21.156;2023-02-28T09:28:14;18.20;;;9.77;;
16979;SDS011;42288;52.182;21.156;2023-02-28T09:30:41;17.20;;;9.03;;
16979;SDS011;42288;52.182;21.156;2023-02-28T09:33:07;19.03;;;8.53;;
16979;SDS011;42288;52.182;21.156;2023-02-28T09:35:32;18.93;;;8.70;;
16979;SDS011;42288;52.182;21.156;2023-02-28T09:37:58;23.77;;;9.10;;
16979;SDS011;42288;52.182;21.156;2023-02-28T09:40:24;22.37;;;10.13;;
16979;SDS011;42288;52.182;21.156;2023-02-28T09:42:51;17.93;;;9.43;;
16979;SDS011;42288;52.182;21.156;2023-02-28T09:45:32;20.20;;;9.93;;
16979;SDS011;42288;52.182;21.156;2023-02-28T09:48:03;19.33;;;9.40;;
16979;SDS011;42288;52.182;21.156;2023-02-28T09:50:36;18.53;;;10.37;;
16979;SDS011;42288;52.182;21.156;2023-02-28T09:53:30;20.83;;;9.63;;
16979;SDS011;42288;52.182;21.156;2023-02-28T09:56:13;16.80;;;8.43;;
16979;SDS011;42288;52.182;21.156;2023-02-28T09:58:52;23.87;;;9.17;;
16979;SDS011;42288;52.182;21.156;2023-02-28T10:01:35;16.67;;;8.67;;
16979;SDS011;42288;52.182;21.156;2023-02-28T10:06:55;17.90;;;9.47;;
16979;SDS011;42288;52.182;21.156;2023-02-28T10:09:26;17.50;;;9.80;;
16979;SDS011;42288;52.182;21.156;2023-02-28T10:11:56;23.63;;;10.80;;
16979;SDS011;42288;52.182;21.156;2023-02-28T10:14:28;20.77;;;10.87;;
16979;SDS011;42288;52.182;21.156;2023-02-28T10:16:56;16.20;;;9.73;;
16979;SDS011;42288;52.182;21.156;2023-02-28T10:19:28;18.57;;;10.17;;
16979;SDS011;42288;52.182;21.156;2023-02-28T10:24:42;15.83;;;9.43;;
16979;SDS011;42288;52.182;21.156;2023-02-28T10:27:16;16.83;;;9.43;;
16979;SDS011;42288;52.182;21.156;2023-02-28T10:29:52;15.50;;;8.33;;
16979;SDS011;42288;52.182;21.156;2023-02-28T10:32:20;19.10;;;8.50;;
16979;SDS011;42288;52.182;21.156;2023-02-28T10:34:56;14.03;;;8.00;;
16979;SDS011;42288;52.182;21.156;2023-02-28T10:37:26;14.17;;;8.50;;
16979;SDS011;42288;52.182;21.156;2023-02-28T10:39:52;14.13;;;8.47;;
16979;SDS011;42288;52.182;21.156;2023-02-28T10:44:59;20.57;;;11.87;;
16979;SDS011;42288;52.182;21.156;2023-02-28T10:47:36;17.77;;;8.30;;
16979;SDS011;42288;52.182;21.156;2023-02-28T10:58:24;13.60;;;8.60;;
16979;SDS011;42288;52.182;21.156;2023-02-28T11:00:52;12.53;;;8.83;;
16979;SDS011;42288;52.182;21.156;2023-02-28T11:06:04;19.37;;;10.07;;
16979;SDS011;42288;52.182;21.156;2023-02-28T11:08:32;18.30;;;10.93;;
16979;SDS011;42288;52.182;21.156;2023-02-28T11:11:00;16.00;;;9.60;;
16979;SDS011;42288;52.182;21.156;2023-02-28T11:13:32;15.93;;;9.93;;
16979;SDS011;42288;52.182;21.156;2023-02-28T11:16:04;17.33;;;9.83;;
16979;SDS011;42288;52.182;21.156;2023-02-28T11:18:48;13.53;;;9.10;;
16979;SDS011;42288;52.182;21.156;2023-02-28T11:21:23;14.63;;;9.47;;
16979;SDS011;42288;52.182;21.156;2023-02-28T11:26:54;13.23;;;8.63;;
16979;SDS011;42288;52.182;21.156;2023-02-28T11:29:22;14.33;;;8.67;;
16979;SDS011;42288;52.182;21.156;2023-02-28T11:34:29;18.57;;;9.47;;
16979;SDS011;42288;52.182;21.156;2023-02-28T11:36:57;16.73;;;9.70;;
16979;SDS011;42288;52.182;21.156;2023-02-28T11:39:25;18.23;;;9.17;;
16979;SDS011;42288;52.182;21.156;2023-02-28T11:55:08;17.70;;;9.73;;
16979;SDS011;42288;52.182;21.156;2023-02-28T12:02:59;21.03;;;9.60;;
16979;SDS011;42288;52.182;21.156;2023-02-28T12:05:42;16.03;;;9.60;;
16979;SDS011;42288;52.182;21.156;2023-02-28T12:08:22;15.57;;;9.33;;
16979;SDS011;42288;52.182;21.156;2023-02-28T12:11:16;18.27;;;11.93;;
16979;SDS011;42288;52.182;21.156;2023-02-28T12:24:37;13.07;;;8.87;;
16979;SDS011;42288;52.182;21.156;2023-02-28T12:27:09;15.33;;;8.97;;
16979;SDS011;42288;52.182;21.156;2023-02-28T12:33:03;14.30;;;8.93;;
16979;SDS011;42288;52.182;21.156;2023-02-28T12:35:38;16.70;;;9.37;;
16979;SDS011;42288;52.182;21.156;2023-02-28T12:38:15;16.07;;;10.13;;
16979;SDS011;42288;52.182;21.156;2023-02-28T12:40:52;21.43;;;10.27;;
16979;SDS011;42288;52.182;21.156;2023-02-28T12:43:19;16.83;;;9.30;;
16979;SDS011;42288;52.182;21.156;2023-02-28T12:48:26;21.87;;;11.37;;
16979;SDS011;42288;52.182;21.156;2023-02-28T12:50:56;22.60;;;11.73;;
16979;SDS011;42288;52.182;21.156;2023-02-28T12:53:35;21.07;;;11.17;;
16979;SDS011;42288;52.182;21.156;2023-02-28T12:56:15;19.47;;;11.00;;
16979;SDS011;42288;52.182;21.156;2023-02-28T13:01:56;21.33;;;11.60;;
16979;SDS011;42288;52.182;21.156;2023-02-28T13:09:51;25.63;;;12.90;;
16979;SDS011;42288;52.182;21.156;2023-02-28T13:12:21;24.03;;;12.63;;
16979;SDS011;42288;52.182;21.156;2023-02-28T13:14:48;23.53;;;13.47;;
16979;SDS011;42288;52.182;21.156;2023-02-28T13:17:18;22.40;;;12.63;;
16979;SDS011;42288;52.182;21.156;2023-02-28T13:20:14;22.03;;;11.73;;
16979;SDS011;42288;52.182;21.156;2023-02-28T13:22:41;18.53;;;10.77;;
16979;SDS011;42288;52.182;21.156;2023-02-28T13:25:49;18.47;;;10.93;;
16979;SDS011;42288;52.182;21.156;2023-02-28T13:28:10;23.17;;;12.37;;
16979;SDS011;42288;52.182;21.156;2023-02-28T13:36:22;18.03;;;11.43;;
16979;SDS011;42288;52.182;21.156;2023-02-28T13:38:55;19.43;;;11.90;;
16979;SDS011;42288;52.182;21.156;2023-02-28T13:44:06;21.27;;;12.10;;
16979;SDS011;42288;52.182;21.156;2023-02-28T13:47:13;23.80;;;11.57;;
16979;SDS011;42288;52.182;21.156;2023-02-28T13:51:48;22.27;;;12.07;;
16979;SDS011;42288;52.182;21.156;2023-02-28T13:57:02;26.70;;;12.73;;
16979;SDS011;42288;52.182;21.156;2023-02-28T14:02:27;24.37;;;11.30;;
16979;SDS011;42288;52.182;21.156;2023-02-28T14:05:00;19.33;;;12.33;;
16979;SDS011;42288;52.182;21.156;2023-02-28T14:07:49;21.83;;;11.50;;
16979;SDS011;42288;52.182;21.156;2023-02-28T14:13:01;20.80;;;12.07;;
16979;SDS011;42288;52.182;21.156;2023-02-28T14:15:40;19.63;;;11.83;;
16979;SDS011;42288;52.182;21.156;2023-02-28T14:20:43;20.90;;;11.50;;
16979;SDS011;42288;52.182;21.156;2023-02-28T14:23:15;19.70;;;11.40;;
16979;SDS011;42288;52.182;21.156;2023-02-28T14:25:59;21.73;;;10.77;;
16979;SDS011;42288;52.182;21.156;2023-02-28T14:28:47;18.67;;;11.93;;
16979;SDS011;42288;52.182;21.156;2023-02-28T14:31:22;21.73;;;11.63;;
16979;SDS011;42288;52.182;21.156;2023-02-28T14:33:59;21.10;;;11.40;;
16979;SDS011;42288;52.182;21.156;2023-02-28T14:36:38;18.13;;;10.83;;
16979;SDS011;42288;52.182;21.156;2023-02-28T14:44:13;18.67;;;12.77;;
16979;SDS011;42288;52.182;21.156;2023-02-28T14:46:48;21.90;;;11.37;;
16979;SDS011;42288;52.182;21.156;2023-02-28T14:49:29;20.53;;;11.27;;
16979;SDS011;42288;52.182;21.156;2023-02-28T14:52:03;23.57;;;11.40;;
16979;SDS011;42288;52.182;21.156;2023-02-28T14:54:42;18.67;;;10.77;;
16979;SDS011;42288;52.182;21.156;2023-02-28T14:57:27;22.37;;;11.97;;
16979;SDS011;42288;52.182;21.156;2023-02-28T15:00:14;20.87;;;12.13;;
16979;SDS011;42288;52.182;21.156;2023-02-28T15:02:51;20.50;;;11.70;;
16979;SDS011;42288;52.182;21.156;2023-02-28T15:07:47;28.90;;;12.20;;
16979;SDS011;42288;52.182;21.156;2023-02-28T15:10:18;25.13;;;12.90;;
16979;SDS011;42288;52.182;21.156;2023-02-28T15:12:55;24.73;;;13.17;;
16979;SDS011;42288;52.182;21.156;2023-02-28T15:15:21;22.37;;;13.13;;
16979;SDS011;42288;52.182;21.156;2023-02-28T15:17:50;22.37;;;13.00;;
16979;SDS011;42288;52.182;21.156;2023-02-28T15:20:19;23.87;;;12.70;;
16979;SDS011;42288;52.182;21.156;2023-02-28T15:22:46;20.77;;;12.30;;
16979;SDS011;42288;52.182;21.156;2023-02-28T15:25:15;20.50;;;11.43;;
16979;SDS011;42288;52.182;21.156;2023-02-28T15:27:48;20.90;;;10.10;;
16979;SDS011;42288;52.182;21.156;2023-02-28T15:30:20;26.97;;;10.40;;
16979;SDS011;42288;52.182;21.156;2023-02-28T15:33:04;17.23;;;10.17;;
16979;SDS011;42288;52.182;21.156;2023-02-28T15:35:47;21.13;;;10.97;;
16979;SDS011;42288;52.182;21.156;2023-02-28T15:40:56;22.87;;;11.47;;
16979;SDS011;42288;52.182;21.156;2023-02-28T15:43:32;24.93;;;12.00;;
16979;SDS011;42288;52.182;21.156;2023-02-28T15:46:05;24.10;;;11.83;;
16979;SDS011;42288;52.182;21.156;2023-02-28T15:48:35;31.43;;;12.87;;
16979;SDS011;42288;52.182;21.156;2023-02-28T15:51:20;31.47;;;12.40;;
16979;SDS011;42288;52.182;21.156;2023-02-28T15:54:03;22.30;;;12.03;;
16979;SDS011;42288;52.182;21.156;2023-02-28T15:56:43;23.80;;;11.50;;
16979;SDS011;42288;52.182;21.156;2023-02-28T15:59:20;24.70;;;11.27;;
16979;SDS011;42288;52.182;21.156;2023-02-28T16:04:34;20.00;;;10.47;;
16979;SDS011;42288;52.182;21.156;2023-02-28T16:09:37;19.60;;;10.47;;
16979;SDS011;42288;52.182;21.156;2023-02-28T16:12:03;28.00;;;11.87;;
16979;SDS011;42288;52.182;21.156;2023-02-28T16:14:30;23.63;;;11.57;;
16979;SDS011;42288;52.182;21.156;2023-02-28T16:16:57;25.70;;;12.90;;
16979;SDS011;42288;52.182;21.156;2023-02-28T16:19:29;26.73;;;14.40;;
16979;SDS011;42288;52.182;21.156;2023-02-28T16:21:55;26.80;;;14.23;;
16979;SDS011;42288;52.182;21.156;2023-02-28T16:24:21;30.20;;;15.13;;
16979;SDS011;42288;52.182;21.156;2023-02-28T16:26:47;34.70;;;17.27;;
16979;SDS011;42288;52.182;21.156;2023-02-28T16:29:26;44.57;;;19.97;;
16979;SDS011;42288;52.182;21.156;2023-02-28T16:31:54;50.10;;;22.37;;
16979;SDS011;42288;52.182;21.156;2023-02-28T16:34:20;43.43;;;21.50;;
16979;SDS011;42288;52.182;21.156;2023-02-28T16:36:49;41.57;;;22.23;;
16979;SDS011;42288;52.182;21.156;2023-02-28T16:39:15;41.93;;;22.93;;
16979;SDS011;42288;52.182;21.156;2023-02-28T16:41:44;43.37;;;21.63;;
16979;SDS011;42288;52.182;21.156;2023-02-28T16:44:13;49.63;;;22.90;;
16979;SDS011;42288;52.182;21.156;2023-02-28T16:46:48;42.10;;;21.53;;
16979;SDS011;42288;52.182;21.156;2023-02-28T16:49:14;37.33;;;19.93;;